createdAt,value
2023-02-24T00:02:04.840Z,5.80
2023-02-24T00:04:38.505Z,5.70
2023-02-24T00:07:10.918Z,5.70
2023-02-24T00:09:39.360Z,5.60
2023-02-24T00:12:13.107Z,5.50
2023-02-24T00:14:44.077Z,6.50
2023-02-24T00:17:16.130Z,5.40
2023-02-24T00:19:43.627Z,5.40
2023-02-24T00:22:11.368Z,6.60
2023-02-24T00:24:38.371Z,5.30
2023-02-24T00:27:07.820Z,5.30
2023-02-24T00:29:40.845Z,5.30
2023-02-24T00:32:12.834Z,5.40
2023-02-24T00:34:40.997Z,5.20
2023-02-24T00:37:08.444Z,5.40
2023-02-24T00:39:41.212Z,5.30
2023-02-24T00:42:11.643Z,5.30
2023-02-24T00:44:44.059Z,5.30
2023-02-24T00:47:13.722Z,5.40
2023-02-24T00:49:43.020Z,5.40
2023-02-24T00:52:18.813Z,5.50
2023-02-24T00:54:49.416Z,5.50
2023-02-24T00:57:21.652Z,5.50
2023-02-24T00:59:51.744Z,5.60
2023-02-24T01:02:19.047Z,7.50
2023-02-24T01:04:46.179Z,5.70
2023-02-24T01:07:14.463Z,5.70
2023-02-24T01:09:43.921Z,5.70
2023-02-24T01:12:22.056Z,5.80
2023-02-24T01:14:52.789Z,6.10
2023-02-24T01:17:21.426Z,5.90
2023-02-24T01:19:49.918Z,5.80
2023-02-24T01:22:21.202Z,5.90
2023-02-24T01:24:49.067Z,6.00
2023-02-24T01:27:19.562Z,6.10
2023-02-24T01:29:48.433Z,6.00
2023-02-24T01:32:20.934Z,6.00
2023-02-24T01:34:52.185Z,6.10
2023-02-24T01:37:20.762Z,6.10
2023-02-24T01:39:49.102Z,6.10
2023-02-24T01:42:20.122Z,6.10
2023-02-24T01:44:47.570Z,6.20
2023-02-24T01:47:21.191Z,7.00
2023-02-24T01:49:54.573Z,6.20
2023-02-24T01:52:34.450Z,6.20
2023-02-24T01:55:20.159Z,6.20
2023-02-24T01:57:50.374Z,6.20
2023-02-24T02:00:32.111Z,6.20
2023-02-24T02:03:08.226Z,6.20
2023-02-24T02:05:38.174Z,6.30
2023-02-24T02:08:05.912Z,4.30
2023-02-24T02:10:34.107Z,6.90
2023-02-24T02:13:04.650Z,6.30
2023-02-24T02:15:43.922Z,6.30
2023-02-24T02:18:47.150Z,6.30
2023-02-24T02:21:57.055Z,6.30
2023-02-24T02:24:41.043Z,6.30
2023-02-24T02:27:48.339Z,6.30
2023-02-24T02:30:47.456Z,6.30
2023-02-24T02:33:39.710Z,6.30
2023-02-24T02:36:22.319Z,6.30
2023-02-24T02:39:13.513Z,6.30
2023-02-24T02:42:07.478Z,6.30
2023-02-24T02:44:57.132Z,7.50
2023-02-24T02:47:37.541Z,6.30
2023-02-24T02:50:18.674Z,6.30
2023-02-24T02:53:39.134Z,6.30
2023-02-24T02:56:32.336Z,6.30
2023-02-24T02:59:01.987Z,6.30
2023-02-24T03:01:36.676Z,7.00
2023-02-24T03:04:09.783Z,6.30
2023-02-24T03:06:49.340Z,6.30
2023-02-24T03:09:26.449Z,6.30
2023-02-24T03:12:04.100Z,6.50
2023-02-24T03:14:39.936Z,6.30
2023-02-24T03:17:17.305Z,6.30
2023-02-24T03:19:54.260Z,6.30
2023-02-24T03:22:42.756Z,6.30
2023-02-24T03:25:11.481Z,7.10
2023-02-24T03:27:53.311Z,6.20
2023-02-24T03:30:28.801Z,6.30
2023-02-24T03:33:09.489Z,6.20
2023-02-24T03:35:42.291Z,6.20
2023-02-24T03:38:11.713Z,6.20
2023-02-24T03:40:43.466Z,6.20
2023-02-24T03:43:28.060Z,6.20
2023-02-24T03:45:58.560Z,6.20
2023-02-24T03:48:29.017Z,6.20
2023-02-24T03:50:59.408Z,6.20
2023-02-24T03:54:17.714Z,6.20
2023-02-24T03:57:05.678Z,6.20
2023-02-24T04:00:23.316Z,8.00
2023-02-24T04:03:27.288Z,6.20
2023-02-24T04:06:46.503Z,6.10
2023-02-24T04:09:50.632Z,6.10
2023-02-24T04:12:36.292Z,6.10
2023-02-24T04:15:37.826Z,6.00
2023-02-24T04:18:20.643Z,6.00
2023-02-24T04:20:53.017Z,5.90
2023-02-24T04:23:36.315Z,5.90
2023-02-24T04:26:03.839Z,5.90
2023-02-24T04:28:32.909Z,5.90
2023-02-24T04:31:11.186Z,5.80
2023-02-24T04:33:39.857Z,5.80
2023-02-24T04:36:09.188Z,5.80
2023-02-24T04:38:39.855Z,5.80
2023-02-24T04:41:07.431Z,5.80
2023-02-24T04:43:35.859Z,5.90
2023-02-24T04:46:07.773Z,5.80
2023-02-24T04:48:35.808Z,5.90
2023-02-24T04:51:03.861Z,5.90
2023-02-24T04:53:31.097Z,5.90
2023-02-24T04:56:08.996Z,5.90
2023-02-24T04:58:43.824Z,5.90
2023-02-24T05:01:11.717Z,6.70
2023-02-24T05:03:42.354Z,5.80
2023-02-24T05:06:16.499Z,5.80
2023-02-24T05:08:44.628Z,5.70
2023-02-24T05:11:16.522Z,5.60
2023-02-24T05:13:45.865Z,5.60
2023-02-24T05:16:17.274Z,7.40
2023-02-24T05:18:45.630Z,5.50
2023-02-24T05:21:35.722Z,5.50
2023-02-24T05:24:06.750Z,5.50
2023-02-24T05:26:38.620Z,5.50
2023-02-24T05:29:06.775Z,6.10
2023-02-24T05:31:38.418Z,5.60
2023-02-24T05:34:08.288Z,5.60
2023-02-24T05:36:40.574Z,5.60
2023-02-24T05:39:12.658Z,5.90
2023-02-24T05:41:43.048Z,5.60
2023-02-24T05:44:22.574Z,5.60
2023-02-24T05:46:58.072Z,5.60
2023-02-24T05:49:34.471Z,6.50
2023-02-24T05:52:08.866Z,6.50
2023-02-24T05:54:42.875Z,5.60
2023-02-24T05:57:15.410Z,5.50
2023-02-24T05:59:44.796Z,5.50
2023-02-24T06:02:15.906Z,5.50
2023-02-24T06:04:53.916Z,6.90
2023-02-24T06:07:27.034Z,5.40
2023-02-24T06:09:57.474Z,5.40
2023-02-24T06:12:31.987Z,5.40
2023-02-24T06:14:59.226Z,5.30
2023-02-24T06:17:28.191Z,6.90
2023-02-24T06:19:55.646Z,6.50
2023-02-24T06:22:26.104Z,6.40
2023-02-24T06:24:55.111Z,5.30
2023-02-24T06:27:24.930Z,5.30
2023-02-24T06:29:54.732Z,5.30
2023-02-24T06:32:25.688Z,5.30
2023-02-24T06:34:54.307Z,5.20
2023-02-24T06:37:23.126Z,5.20
2023-02-24T06:39:50.524Z,5.20
2023-02-24T06:42:17.741Z,5.20
2023-02-24T06:44:46.499Z,5.20
2023-02-24T06:47:17.844Z,5.10
2023-02-24T06:49:44.904Z,5.10
2023-02-24T06:52:18.535Z,5.10
2023-02-24T06:54:51.761Z,5.10
2023-02-24T06:57:20.345Z,5.10
2023-02-24T06:59:48.898Z,6.80
2023-02-24T07:02:17.613Z,6.30
2023-02-24T07:04:45.776Z,5.10
2023-02-24T07:07:14.567Z,5.20
2023-02-24T07:09:42.764Z,6.40
2023-02-24T07:12:12.590Z,5.20
2023-02-24T07:14:40.455Z,5.20
2023-02-24T07:17:08.555Z,5.20
2023-02-24T07:19:38.444Z,5.20
2023-02-24T07:22:05.408Z,5.20
2023-02-24T07:24:37.434Z,5.20
2023-02-24T07:27:22.369Z,5.20
2023-02-24T07:29:53.282Z,5.30
2023-02-24T07:32:25.539Z,5.30
2023-02-24T07:34:53.585Z,5.30
2023-02-24T07:37:21.106Z,5.40
2023-02-24T07:39:48.168Z,5.40
2023-02-24T07:42:15.199Z,6.10
2023-02-24T07:44:56.539Z,5.50
2023-02-24T07:47:25.130Z,5.50
2023-02-24T07:49:52.025Z,5.50
2023-02-24T07:52:19.033Z,5.60
2023-02-24T07:54:46.171Z,5.70
2023-02-24T07:57:14.128Z,5.70
2023-02-24T07:59:45.186Z,5.80
2023-02-24T08:02:14.414Z,5.80
2023-02-24T08:04:44.454Z,5.90
2023-02-24T08:07:14.578Z,7.10
2023-02-24T08:09:45.231Z,6.00
2023-02-24T08:12:22.804Z,6.10
2023-02-24T08:14:53.337Z,7.20
2023-02-24T08:17:26.623Z,6.30
2023-02-24T08:20:14.249Z,6.40
2023-02-24T08:22:47.030Z,6.40
2023-02-24T08:25:19.546Z,6.50
2023-02-24T08:28:07.474Z,6.60
2023-02-24T08:30:40.506Z,6.60
2023-02-24T08:33:16.703Z,6.70
2023-02-24T08:35:45.434Z,6.80
2023-02-24T08:38:16.358Z,6.80
2023-02-24T08:40:51.537Z,6.90
2023-02-24T08:43:32.167Z,7.00
2023-02-24T08:46:03.830Z,7.00
2023-02-24T08:48:39.431Z,7.10
2023-02-24T08:51:38.268Z,7.20
2023-02-24T08:54:27.042Z,7.30
2023-02-24T08:56:56.431Z,7.30
2023-02-24T08:59:37.809Z,7.40
2023-02-24T09:02:27.455Z,7.50
2023-02-24T09:05:03.773Z,9.30
2023-02-24T09:07:36.810Z,7.70
2023-02-24T09:10:18.022Z,7.70
2023-02-24T09:12:46.500Z,7.80
2023-02-24T09:15:15.750Z,7.90
2023-02-24T09:17:45.193Z,9.90
2023-02-24T09:20:27.434Z,8.10
2023-02-24T09:23:07.619Z,8.10
2023-02-24T09:25:44.486Z,8.30
2023-02-24T09:28:19.085Z,8.20
2023-02-24T09:30:59.580Z,8.20
2023-02-24T09:33:39.781Z,8.10
2023-02-24T09:36:10.965Z,8.10
2023-02-24T09:38:59.260Z,8.10
2023-02-24T09:41:56.207Z,8.10
2023-02-24T09:44:52.919Z,8.10
2023-02-24T09:47:55.347Z,8.10
2023-02-24T09:50:55.438Z,8.30
2023-02-24T09:53:18.696Z,8.20
2023-02-24T09:56:05.672Z,8.30
2023-02-24T09:59:12.729Z,8.40
2023-02-24T10:02:27.397Z,8.50
2023-02-24T10:05:28.128Z,8.50
2023-02-24T10:07:57.742Z,8.60
2023-02-24T10:10:36.239Z,8.60
2023-02-24T10:13:30.690Z,8.70
2023-02-24T10:16:07.079Z,8.70
2023-02-24T10:18:46.243Z,8.80
2023-02-24T10:21:20.483Z,10.00
2023-02-24T10:24:19.425Z,8.80
2023-02-24T10:27:08.493Z,10.60
2023-02-24T10:30:01.322Z,8.90
2023-02-24T10:32:33.932Z,9.00
2023-02-24T10:35:06.238Z,9.10
2023-02-24T10:37:36.175Z,9.00
2023-02-24T10:40:10.511Z,9.00
2023-02-24T10:42:48.752Z,9.00
2023-02-24T10:45:27.570Z,9.00
2023-02-24T10:47:59.505Z,9.00
2023-02-24T10:50:55.385Z,9.00
2023-02-24T10:53:41.054Z,9.10
2023-02-24T10:56:27.159Z,9.10
2023-02-24T10:59:22.519Z,9.20
2023-02-24T11:02:33.767Z,9.30
2023-02-24T11:05:26.925Z,9.40
2023-02-24T11:08:36.973Z,9.50
2023-02-24T11:11:55.117Z,10.70
2023-02-24T11:14:40.676Z,9.60
2023-02-24T11:17:27.735Z,11.00
2023-02-24T11:20:15.652Z,9.70
2023-02-24T11:22:46.669Z,9.70
2023-02-24T11:25:24.508Z,10.70
2023-02-24T11:27:56.562Z,9.70
2023-02-24T11:30:49.738Z,9.50
2023-02-24T11:33:35.150Z,9.60
2023-02-24T11:36:37.240Z,11.00
2023-02-24T11:39:37.914Z,9.60
2023-02-24T11:42:14.790Z,9.50
2023-02-24T11:45:12.143Z,9.50
2023-02-24T11:47:47.628Z,9.50
2023-02-24T11:50:32.867Z,9.50
2023-02-24T11:53:12.306Z,9.40
2023-02-24T11:55:48.478Z,9.40
2023-02-24T11:58:33.854Z,9.30
2023-02-24T12:01:17.083Z,9.20
2023-02-24T12:04:21.862Z,9.20
2023-02-24T12:07:06.659Z,9.10
2023-02-24T12:09:48.060Z,9.10
2023-02-24T12:12:27.771Z,9.10
2023-02-24T12:15:13.539Z,9.20
2023-02-24T12:18:02.005Z,9.00
2023-02-24T12:20:41.540Z,9.00
2023-02-24T12:23:40.287Z,8.90
2023-02-24T12:26:24.533Z,8.80
2023-02-24T12:29:42.434Z,8.70
2023-02-24T12:32:51.677Z,8.70
2023-02-24T12:35:32.653Z,8.60
2023-02-24T12:38:24.143Z,8.60
2023-02-24T12:41:10.583Z,8.40
2023-02-24T12:43:50.861Z,8.40
2023-02-24T12:46:37.219Z,9.60
2023-02-24T12:49:31.013Z,8.30
2023-02-24T12:52:34.500Z,8.30
2023-02-24T12:55:23.686Z,8.30
2023-02-24T12:58:08.374Z,8.30
2023-02-24T13:01:33.347Z,8.40
2023-02-24T13:04:21.934Z,8.40
2023-02-24T13:07:12.720Z,8.30
2023-02-24T13:09:49.351Z,8.40
2023-02-24T13:12:43.345Z,8.30
2023-02-24T13:15:22.933Z,8.30
2023-02-24T13:17:52.841Z,8.30
2023-02-24T13:20:38.516Z,10.00
2023-02-24T13:23:21.675Z,8.30
2023-02-24T13:25:55.967Z,9.70
2023-02-24T13:28:27.818Z,8.30
2023-02-24T13:31:05.768Z,8.80
2023-02-24T13:33:40.944Z,8.30
2023-02-24T13:36:23.005Z,9.50
2023-02-24T13:38:55.060Z,8.30
2023-02-24T13:41:28.348Z,8.30
2023-02-24T13:44:02.932Z,8.30
2023-02-24T13:47:15.225Z,8.30
2023-02-24T13:50:32.530Z,8.30
2023-02-24T13:53:42.112Z,8.40
2023-02-24T13:57:12.514Z,8.30
2023-02-24T14:00:15.941Z,8.30
2023-02-24T14:02:44.492Z,8.30
2023-02-24T14:05:43.248Z,9.70
2023-02-24T14:08:24.109Z,8.40
2023-02-24T14:10:57.162Z,8.50
2023-02-24T14:13:29.935Z,8.40
2023-02-24T14:15:59.749Z,8.50
2023-02-24T14:18:30.794Z,8.60
2023-02-24T14:20:59.010Z,8.70
2023-02-24T14:23:34.464Z,8.70
2023-02-24T14:26:18.670Z,8.80
2023-02-24T14:29:00.807Z,8.90
2023-02-24T14:31:30.318Z,9.00
2023-02-24T14:34:03.487Z,9.10
2023-02-24T14:36:39.535Z,9.20
2023-02-24T14:39:23.540Z,9.20
2023-02-24T14:42:03.458Z,9.30
2023-02-24T14:44:31.358Z,9.30
2023-02-24T14:47:04.104Z,9.40
2023-02-24T14:49:37.121Z,9.40
2023-02-24T14:52:22.030Z,9.40
2023-02-24T14:55:06.134Z,9.70
2023-02-24T14:58:16.815Z,11.30
2023-02-24T15:00:53.608Z,9.40
2023-02-24T15:03:48.838Z,10.60
2023-02-24T15:06:40.979Z,9.30
2023-02-24T15:09:24.520Z,9.30
2023-02-24T15:11:55.665Z,9.40
2023-02-24T15:14:34.476Z,9.40
2023-02-24T15:17:15.313Z,9.30
2023-02-24T15:19:49.090Z,9.30
2023-02-24T15:22:50.061Z,9.40
2023-02-24T15:25:41.884Z,9.40
2023-02-24T15:28:33.457Z,9.40
2023-02-24T15:31:04.837Z,9.50
2023-02-24T15:33:44.335Z,9.60
2023-02-24T15:36:20.372Z,9.80
2023-02-24T15:39:01.645Z,9.90
2023-02-24T15:41:48.069Z,10.10
2023-02-24T15:44:56.296Z,10.10
2023-02-24T15:47:26.516Z,10.60
2023-02-24T15:49:54.063Z,10.00
2023-02-24T15:52:29.616Z,9.80
2023-02-24T15:54:59.495Z,9.70
2023-02-24T15:57:28.775Z,9.60
2023-02-24T15:59:55.937Z,9.60
2023-02-24T16:02:24.732Z,10.90
2023-02-24T16:04:53.543Z,10.00
2023-02-24T16:07:34.137Z,9.80
2023-02-24T16:10:03.122Z,8.80
2023-02-24T16:12:45.005Z,10.90
2023-02-24T16:15:21.338Z,9.20
2023-02-24T16:17:49.602Z,9.10
2023-02-24T16:20:27.366Z,9.90
2023-02-24T16:23:00.879Z,8.90
2023-02-24T16:25:34.066Z,8.90
2023-02-24T16:28:02.858Z,8.60
2023-02-24T16:30:31.711Z,8.80
2023-02-24T16:33:01.052Z,8.70
2023-02-24T16:35:29.001Z,8.70
2023-02-24T16:37:55.958Z,8.80
2023-02-24T16:40:26.243Z,8.60
2023-02-24T16:42:54.193Z,7.10
2023-02-24T16:45:25.789Z,10.20
2023-02-24T16:47:55.964Z,8.40
2023-02-24T16:50:41.043Z,8.40
2023-02-24T16:53:13.095Z,9.80
2023-02-24T16:55:40.091Z,9.10
2023-02-24T16:58:07.114Z,9.30
2023-02-24T17:00:34.220Z,8.00
2023-02-24T17:03:11.733Z,8.00
2023-02-24T17:05:39.204Z,7.80
2023-02-24T17:08:06.198Z,7.70
2023-02-24T17:10:35.683Z,7.60
2023-02-24T17:13:02.697Z,8.90
2023-02-24T17:15:30.024Z,7.50
2023-02-24T17:17:57.291Z,7.40
2023-02-24T17:20:24.476Z,7.40
2023-02-24T17:22:53.910Z,9.20
2023-02-24T17:25:25.922Z,7.30
2023-02-24T17:27:54.929Z,7.20
2023-02-24T17:30:30.114Z,9.20
2023-02-24T17:32:58.421Z,7.10
2023-02-24T17:35:26.966Z,8.20
2023-02-24T17:37:56.371Z,8.20
2023-02-24T17:40:24.008Z,7.10
2023-02-24T17:42:52.000Z,7.10
2023-02-24T17:45:19.771Z,7.10
2023-02-24T17:47:46.878Z,7.10
2023-02-24T17:50:14.679Z,7.50
2023-02-24T17:52:41.821Z,9.10
2023-02-24T17:55:10.083Z,7.20
2023-02-24T17:57:39.847Z,7.20
2023-02-24T18:00:12.492Z,8.10
2023-02-24T18:02:40.659Z,7.30
2023-02-24T18:05:09.796Z,7.80
2023-02-24T18:07:37.616Z,7.40
2023-02-24T18:10:06.287Z,7.40
2023-02-24T18:12:33.372Z,7.30
2023-02-24T18:15:08.322Z,7.40
2023-02-24T18:17:38.930Z,7.40
2023-02-24T18:20:08.304Z,7.50
2023-02-24T18:22:39.985Z,7.50
2023-02-24T18:25:07.668Z,7.40
2023-02-24T18:27:36.326Z,7.50
2023-02-24T18:30:07.048Z,7.50
2023-02-24T18:32:35.231Z,7.50
2023-02-24T18:35:02.673Z,9.30
2023-02-24T18:37:29.839Z,7.30
2023-02-24T18:39:56.943Z,8.80
2023-02-24T18:42:25.011Z,7.60
2023-02-24T18:44:52.016Z,7.30
2023-02-24T18:47:19.267Z,9.00
2023-02-24T18:49:46.753Z,7.20
2023-02-24T18:52:16.827Z,7.30
2023-02-24T18:54:44.169Z,7.50
2023-02-24T18:57:11.259Z,7.30
2023-02-24T18:59:40.717Z,7.30
2023-02-24T19:02:10.242Z,7.30
2023-02-24T19:04:37.585Z,8.60
2023-02-24T19:07:06.012Z,7.40
2023-02-24T19:09:35.644Z,7.40
2023-02-24T19:12:03.239Z,7.40
2023-02-24T19:14:32.115Z,7.40
2023-02-24T19:17:01.702Z,8.20
2023-02-24T19:19:28.964Z,7.30
2023-02-24T19:21:56.021Z,7.30
2023-02-24T19:24:23.252Z,8.50
2023-02-24T19:26:53.988Z,9.20
2023-02-24T19:29:22.140Z,9.50
2023-02-24T19:31:54.134Z,7.30
2023-02-24T19:34:21.657Z,8.20
2023-02-24T19:36:48.656Z,7.30
2023-02-24T19:39:17.499Z,8.40
2023-02-24T19:41:45.175Z,8.90
2023-02-24T19:44:12.848Z,7.40
2023-02-24T19:46:40.241Z,7.40
2023-02-24T19:49:07.407Z,7.40
2023-02-24T19:51:35.043Z,7.50
2023-02-24T19:54:06.285Z,8.30
2023-02-24T19:56:40.153Z,7.30
2023-02-24T19:59:08.792Z,8.50
2023-02-24T20:01:36.807Z,7.30
2023-02-24T20:04:06.016Z,7.20
2023-02-24T20:06:39.002Z,7.20
2023-02-24T20:09:09.359Z,7.20
2023-02-24T20:11:40.511Z,7.10
2023-02-24T20:14:10.048Z,7.00
2023-02-24T20:16:40.965Z,7.00
2023-02-24T20:19:11.510Z,7.00
2023-02-24T20:21:40.106Z,8.20
2023-02-24T20:24:13.906Z,8.10
2023-02-24T20:26:46.374Z,6.90
2023-02-24T20:29:15.515Z,6.80
2023-02-24T20:31:43.784Z,6.70
2023-02-24T20:34:11.185Z,6.70
2023-02-24T20:36:38.431Z,6.50
2023-02-24T20:39:12.374Z,8.60
2023-02-24T20:41:40.511Z,6.50
2023-02-24T20:44:08.214Z,6.50
2023-02-24T20:46:37.678Z,6.50
2023-02-24T20:49:09.149Z,6.40
2023-02-24T20:51:37.843Z,6.30
2023-02-24T20:54:06.617Z,6.30
2023-02-24T20:56:36.684Z,6.30
2023-02-24T20:59:34.520Z,7.50
2023-02-24T21:02:01.645Z,6.30
2023-02-24T21:04:28.739Z,5.60
2023-02-24T21:07:00.172Z,6.40
2023-02-24T21:09:27.669Z,6.40
2023-02-24T21:11:54.860Z,6.50
2023-02-24T21:14:23.177Z,7.70
2023-02-24T21:16:50.261Z,6.50
2023-02-24T21:19:17.958Z,6.60
2023-02-24T21:21:45.184Z,8.10
2023-02-24T21:24:12.210Z,8.30
2023-02-24T21:26:39.365Z,6.60
2023-02-24T21:29:06.461Z,6.80
2023-02-24T21:31:35.524Z,6.60
2023-02-24T21:34:02.723Z,6.60
2023-02-24T21:36:33.304Z,6.60
2023-02-24T21:39:01.001Z,6.60
2023-02-24T21:41:28.072Z,6.60
2023-02-24T21:43:55.825Z,6.30
2023-02-24T21:46:28.094Z,6.60
2023-02-24T21:48:59.357Z,6.60
2023-02-24T21:51:29.193Z,7.70
2023-02-24T21:53:57.551Z,6.70
2023-02-24T21:56:31.979Z,6.70
2023-02-24T21:59:04.042Z,7.80
2023-02-24T22:01:44.348Z,8.00
2023-02-24T22:04:16.777Z,8.80
2023-02-24T22:06:45.616Z,6.80
2023-02-24T22:09:23.076Z,6.80
2023-02-24T22:11:51.008Z,8.50
2023-02-24T22:14:19.419Z,7.00
2023-02-24T22:16:46.606Z,6.90
2023-02-24T22:19:13.938Z,6.90
2023-02-24T22:21:42.492Z,8.50
2023-02-24T22:24:14.925Z,7.00
2023-02-24T22:26:43.403Z,6.90
2023-02-24T22:29:11.054Z,7.80
2023-02-24T22:31:39.099Z,6.90
2023-02-24T22:34:06.286Z,6.90
2023-02-24T22:36:38.627Z,7.00
2023-02-24T22:39:07.208Z,6.90
2023-02-24T22:41:38.422Z,7.00
2023-02-24T22:44:06.773Z,8.70
2023-02-24T22:46:38.451Z,6.90
2023-02-24T22:49:06.522Z,7.00
2023-02-24T22:51:33.598Z,7.00
2023-02-24T22:54:00.656Z,7.00
2023-02-24T22:56:29.945Z,7.00
2023-02-24T22:59:03.554Z,8.10
2023-02-24T23:01:37.304Z,7.00
2023-02-24T23:04:08.341Z,6.90
2023-02-24T23:06:39.067Z,6.90
2023-02-24T23:09:06.690Z,7.00
2023-02-24T23:11:38.650Z,8.80
2023-02-24T23:14:10.045Z,6.70
2023-02-24T23:16:38.998Z,6.70
2023-02-24T23:19:16.069Z,6.60
2023-02-24T23:21:51.890Z,6.60
2023-02-24T23:24:21.121Z,8.40
2023-02-24T23:26:54.528Z,6.50
2023-02-24T23:29:24.101Z,7.70
2023-02-24T23:31:52.589Z,6.50
2023-02-24T23:34:20.264Z,7.70
2023-02-24T23:36:48.366Z,6.50
2023-02-24T23:39:20.336Z,6.40
2023-02-24T23:41:47.672Z,6.40
2023-02-24T23:44:14.797Z,6.40
2023-02-24T23:46:42.076Z,6.40
2023-02-24T23:49:09.763Z,6.40
2023-02-24T23:51:52.973Z,6.40
2023-02-24T23:54:20.765Z,6.40
2023-02-24T23:56:48.120Z,6.30
2023-02-24T23:59:15.571Z,6.30
